Rushville, OH

3:27 AM EST on January 26, 2015 (GMT -0500)
WB8ZTP - Gale Road - Granville, Ohio | Change Station
CLOSE
Current Station
Personal Weather Station
Location: Granville, OH
Elevation: 1118 ft
Nearby Weather Stations

Elev 1118 ft 40.04 °N, 82.58 °W | Updated 3 minutes ago

Snow
Snow
22.6 °F
Feels Like 16 °F
N
5.0
Wind Variable Wind from NNE
Gusts 11.0 mph

Today
High -- | Low -- °F
--% Chance of Precip.
Yesterday
High -- | Low -- °F
Precip. -- in
7:42 AM 5:41 PM
Waxing Crescent, 41% visible
Pressure 29.72 in
Visibility 2.5 miles
Clouds Mostly Cloudy 1000 ft
Overcast 1600 ft
Windchill 16 °F
Dew Point 21 °F
Humidity 93%
Rainfall 0.00 in
Snow Depth Not available.
UV 0 out of 12
Pollen .10 out of 12
Air Quality Not available.
Flu Activity Not available.
SPECI KLHQ 260809Z AUTO 02009KT 2 1/2SM -SN BR BKN010 OVC016 M03/M04 A2972 RMK AO2 CIG 007V013 P0000 T10281044

More Conditions Fewer Conditions

Pressure 29.72 in
Visibility 2.5 miles
Clouds Mostly Cloudy 1000 ft
Overcast 1600 ft
Windchill 16 °F
Dew Point 21 °F
Humidity 93%
Rainfall 0.00 in
Snow Depth Not available.
UV 0 out of 12
Pollen .10 out of 12
Air Quality Not available.
Flu Activity Not available.
SPECI KLHQ 260809Z AUTO 02009KT 2 1/2SM -SN BR BKN010 OVC016 M03/M04 A2972 RMK AO2 CIG 007V013 P0000 T10281044

More Conditions Fewer Conditions

10-Day Weather Forecast

Almanac

Astronomy

Jan. 26, 2015 Rise Set
Actual Time
Civil Twilight
Nautical Twilight
Astronomical Twilight
Moon
Length of Visible Light
Length of Day
Tomorrow will be .
, % of the Moon is Illuminated

Today's Extremes

State Highs State Lows

Community

WunderPhotos

Upload Photos

1,790,163 photos uploaded!

WunderBlogs® & News

Nearby

Air Quality

  Air Quality AQ Index Pollutant
Not available.

Snow Depth

Station Depth Elevation

Earthquake Activity

City Distance Mag. Time & Date
Minimum magnitude displayed is 2.5.

Coastal Water Temperatures

Place Temperature

Nearby Weather Stations